sensor_id;sensor_type;location;lat;lon;timestamp;temperature;humidity
360;DHT22;168;48.872;9.226;2022-11-14T00:00:52;4.80;96.50
360;DHT22;168;48.872;9.226;2022-11-14T00:03:20;4.80;96.70
360;DHT22;168;48.872;9.226;2022-11-14T00:05:47;4.90;96.90
360;DHT22;168;48.872;9.226;2022-11-14T00:08:18;4.90;97.20
360;DHT22;168;48.872;9.226;2022-11-14T00:10:47;4.80;97.10
360;DHT22;168;48.872;9.226;2022-11-14T00:13:17;4.80;96.80
360;DHT22;168;48.872;9.226;2022-11-14T00:15:47;4.80;96.90
360;DHT22;168;48.872;9.226;2022-11-14T00:18:17;4.70;96.70
360;DHT22;168;48.872;9.226;2022-11-14T00:20:47;4.70;96.20
360;DHT22;168;48.872;9.226;2022-11-14T00:23:16;4.60;95.90
360;DHT22;168;48.872;9.226;2022-11-14T00:25:45;4.60;95.80
360;DHT22;168;48.872;9.226;2022-11-14T00:28:13;4.60;95.60
360;DHT22;168;48.872;9.226;2022-11-14T00:30:45;4.60;95.70
360;DHT22;168;48.872;9.226;2022-11-14T00:33:13;4.60;95.70
360;DHT22;168;48.872;9.226;2022-11-14T00:35:49;4.60;95.30
360;DHT22;168;48.872;9.226;2022-11-14T00:38:18;4.60;95.50
360;DHT22;168;48.872;9.226;2022-11-14T00:40:46;4.60;95.60
360;DHT22;168;48.872;9.226;2022-11-14T00:43:14;4.60;95.90
360;DHT22;168;48.872;9.226;2022-11-14T00:45:43;4.60;95.80
360;DHT22;168;48.872;9.226;2022-11-14T00:48:10;4.60;95.40
360;DHT22;168;48.872;9.226;2022-11-14T00:50:37;4.60;95.00
360;DHT22;168;48.872;9.226;2022-11-14T00:53:05;4.60;95.10
360;DHT22;168;48.872;9.226;2022-11-14T00:55:35;4.60;95.10
360;DHT22;168;48.872;9.226;2022-11-14T00:58:02;4.60;95.00
360;DHT22;168;48.872;9.226;2022-11-14T01:00:30;4.60;94.50
360;DHT22;168;48.872;9.226;2022-11-14T01:02:58;4.60;94.60
360;DHT22;168;48.872;9.226;2022-11-14T01:05:26;4.60;94.50
360;DHT22;168;48.872;9.226;2022-11-14T01:07:54;4.60;94.50
360;DHT22;168;48.872;9.226;2022-11-14T01:10:22;4.60;94.80
360;DHT22;168;48.872;9.226;2022-11-14T01:12:53;4.60;95.10
360;DHT22;168;48.872;9.226;2022-11-14T01:15:21;4.80;96.40
360;DHT22;168;48.872;9.226;2022-11-14T01:17:48;4.70;97.80
360;DHT22;168;48.872;9.226;2022-11-14T01:20:16;4.60;97.40
360;DHT22;168;48.872;9.226;2022-11-14T01:22:44;4.60;96.60
360;DHT22;168;48.872;9.226;2022-11-14T01:25:12;4.70;97.50
360;DHT22;168;48.872;9.226;2022-11-14T01:27:40;4.70;97.60
360;DHT22;168;48.872;9.226;2022-11-14T01:30:10;4.50;96.70
360;DHT22;168;48.872;9.226;2022-11-14T01:32:38;4.40;95.90
360;DHT22;168;48.872;9.226;2022-11-14T01:35:06;4.30;95.60
360;DHT22;168;48.872;9.226;2022-11-14T01:37:34;4.30;95.70
360;DHT22;168;48.872;9.226;2022-11-14T01:40:01;4.30;95.70
360;DHT22;168;48.872;9.226;2022-11-14T01:42:28;4.40;95.70
360;DHT22;168;48.872;9.226;2022-11-14T01:44:56;4.40;96.00
360;DHT22;168;48.872;9.226;2022-11-14T01:47:28;4.50;96.40
360;DHT22;168;48.872;9.226;2022-11-14T01:49:58;4.40;96.10
360;DHT22;168;48.872;9.226;2022-11-14T01:52:29;4.30;95.70
360;DHT22;168;48.872;9.226;2022-11-14T01:54:59;4.30;95.70
360;DHT22;168;48.872;9.226;2022-11-14T01:57:31;4.30;95.80
360;DHT22;168;48.872;9.226;2022-11-14T02:00:04;4.30;95.90
360;DHT22;168;48.872;9.226;2022-11-14T02:02:34;4.30;96.10
360;DHT22;168;48.872;9.226;2022-11-14T02:05:05;4.30;96.60
360;DHT22;168;48.872;9.226;2022-11-14T02:07:36;4.30;96.70
360;DHT22;168;48.872;9.226;2022-11-14T02:10:07;4.30;96.60
360;DHT22;168;48.872;9.226;2022-11-14T02:12:35;4.30;96.30
360;DHT22;168;48.872;9.226;2022-11-14T02:15:04;4.30;96.30
360;DHT22;168;48.872;9.226;2022-11-14T02:17:31;4.30;96.40
360;DHT22;168;48.872;9.226;2022-11-14T02:20:18;4.30;96.60
360;DHT22;168;48.872;9.226;2022-11-14T02:22:45;4.30;96.30
360;DHT22;168;48.872;9.226;2022-11-14T02:25:15;4.30;96.10
360;DHT22;168;48.872;9.226;2022-11-14T02:27:44;4.20;96.10
360;DHT22;168;48.872;9.226;2022-11-14T02:30:15;4.20;96.20
360;DHT22;168;48.872;9.226;2022-11-14T02:32:42;4.10;96.10
360;DHT22;168;48.872;9.226;2022-11-14T02:35:10;4.20;96.30
360;DHT22;168;48.872;9.226;2022-11-14T02:37:39;4.20;96.60
360;DHT22;168;48.872;9.226;2022-11-14T02:40:08;4.10;96.80
360;DHT22;168;48.872;9.226;2022-11-14T02:42:35;4.10;96.80
360;DHT22;168;48.872;9.226;2022-11-14T02:45:03;4.10;97.00
360;DHT22;168;48.872;9.226;2022-11-14T02:47:31;4.10;97.10
360;DHT22;168;48.872;9.226;2022-11-14T02:49:58;4.00;97.20
360;DHT22;168;48.872;9.226;2022-11-14T02:52:26;4.00;97.20
360;DHT22;168;48.872;9.226;2022-11-14T02:54:55;4.00;97.30
360;DHT22;168;48.872;9.226;2022-11-14T02:57:22;4.00;97.10
360;DHT22;168;48.872;9.226;2022-11-14T02:59:49;3.90;96.80
360;DHT22;168;48.872;9.226;2022-11-14T03:02:19;3.90;96.90
360;DHT22;168;48.872;9.226;2022-11-14T03:04:46;3.90;97.00
360;DHT22;168;48.872;9.226;2022-11-14T03:07:13;3.90;97.00
360;DHT22;168;48.872;9.226;2022-11-14T03:09:41;3.90;96.90
360;DHT22;168;48.872;9.226;2022-11-14T03:12:10;3.90;96.50
360;DHT22;168;48.872;9.226;2022-11-14T03:14:37;3.90;96.80
360;DHT22;168;48.872;9.226;2022-11-14T03:17:05;3.80;96.70
360;DHT22;168;48.872;9.226;2022-11-14T03:19:32;3.80;96.40
360;DHT22;168;48.872;9.226;2022-11-14T03:22:00;3.80;96.00
360;DHT22;168;48.872;9.226;2022-11-14T03:24:30;3.70;95.60
360;DHT22;168;48.872;9.226;2022-11-14T03:26:57;3.60;95.00
360;DHT22;168;48.872;9.226;2022-11-14T03:29:26;3.70;94.50
360;DHT22;168;48.872;9.226;2022-11-14T03:31:54;3.80;94.80
360;DHT22;168;48.872;9.226;2022-11-14T03:34:21;3.80;95.20
360;DHT22;168;48.872;9.226;2022-11-14T03:36:49;3.80;94.80
360;DHT22;168;48.872;9.226;2022-11-14T03:39:17;3.80;95.60
360;DHT22;168;48.872;9.226;2022-11-14T03:41:44;3.90;95.20
360;DHT22;168;48.872;9.226;2022-11-14T03:44:12;3.90;96.00
360;DHT22;168;48.872;9.226;2022-11-14T03:46:41;3.70;95.30
360;DHT22;168;48.872;9.226;2022-11-14T03:49:08;3.70;94.70
360;DHT22;168;48.872;9.226;2022-11-14T03:51:36;3.70;94.20
360;DHT22;168;48.872;9.226;2022-11-14T03:54:03;3.70;94.70
360;DHT22;168;48.872;9.226;2022-11-14T03:56:31;3.70;94.30
360;DHT22;168;48.872;9.226;2022-11-14T03:58:58;3.80;94.20
360;DHT22;168;48.872;9.226;2022-11-14T04:01:26;3.80;94.60
360;DHT22;168;48.872;9.226;2022-11-14T04:03:55;3.90;95.00
360;DHT22;168;48.872;9.226;2022-11-14T04:06:23;3.90;95.30
360;DHT22;168;48.872;9.226;2022-11-14T04:08:50;3.90;96.20
360;DHT22;168;48.872;9.226;2022-11-14T04:11:18;3.80;96.20
360;DHT22;168;48.872;9.226;2022-11-14T04:13:46;3.70;96.70
360;DHT22;168;48.872;9.226;2022-11-14T04:16:14;3.70;96.50
360;DHT22;168;48.872;9.226;2022-11-14T04:18:41;3.60;96.40
360;DHT22;168;48.872;9.226;2022-11-14T04:21:10;3.60;96.20
360;DHT22;168;48.872;9.226;2022-11-14T04:23:38;3.60;96.20
360;DHT22;168;48.872;9.226;2022-11-14T04:26:05;3.50;96.20
360;DHT22;168;48.872;9.226;2022-11-14T04:28:33;3.50;96.40
360;DHT22;168;48.872;9.226;2022-11-14T04:31:00;3.50;96.70
360;DHT22;168;48.872;9.226;2022-11-14T04:33:27;3.50;97.00
360;DHT22;168;48.872;9.226;2022-11-14T04:35:55;3.50;97.30
360;DHT22;168;48.872;9.226;2022-11-14T04:38:23;3.60;97.40
360;DHT22;168;48.872;9.226;2022-11-14T04:40:51;3.60;97.50
360;DHT22;168;48.872;9.226;2022-11-14T04:43:19;3.60;97.40
360;DHT22;168;48.872;9.226;2022-11-14T04:45:47;3.60;97.60
360;DHT22;168;48.872;9.226;2022-11-14T04:48:15;3.50;97.30
360;DHT22;168;48.872;9.226;2022-11-14T04:50:44;3.50;96.80
360;DHT22;168;48.872;9.226;2022-11-14T04:53:11;3.60;96.50
360;DHT22;168;48.872;9.226;2022-11-14T04:55:40;3.60;96.30
360;DHT22;168;48.872;9.226;2022-11-14T04:58:09;3.60;96.40
360;DHT22;168;48.872;9.226;2022-11-14T05:00:37;3.70;96.70
360;DHT22;168;48.872;9.226;2022-11-14T05:03:04;3.70;97.20
360;DHT22;168;48.872;9.226;2022-11-14T05:05:31;3.70;96.80
360;DHT22;168;48.872;9.226;2022-11-14T05:07:59;3.60;96.60
360;DHT22;168;48.872;9.226;2022-11-14T05:10:26;3.60;96.50
360;DHT22;168;48.872;9.226;2022-11-14T05:12:55;3.60;96.00
360;DHT22;168;48.872;9.226;2022-11-14T05:15:23;3.70;96.20
360;DHT22;168;48.872;9.226;2022-11-14T05:17:50;3.60;96.20
360;DHT22;168;48.872;9.226;2022-11-14T05:20:17;3.60;96.00
360;DHT22;168;48.872;9.226;2022-11-14T05:22:45;3.70;96.10
360;DHT22;168;48.872;9.226;2022-11-14T05:25:13;3.70;96.40
360;DHT22;168;48.872;9.226;2022-11-14T05:27:40;3.70;96.30
360;DHT22;168;48.872;9.226;2022-11-14T05:30:11;3.70;96.90
360;DHT22;168;48.872;9.226;2022-11-14T05:32:39;3.60;96.80
360;DHT22;168;48.872;9.226;2022-11-14T05:35:10;3.70;96.60
360;DHT22;168;48.872;9.226;2022-11-14T05:37:37;3.70;96.80
360;DHT22;168;48.872;9.226;2022-11-14T05:40:09;3.60;96.90
360;DHT22;168;48.872;9.226;2022-11-14T05:42:37;3.70;96.90
360;DHT22;168;48.872;9.226;2022-11-14T05:45:05;3.70;97.10
360;DHT22;168;48.872;9.226;2022-11-14T05:47:34;3.70;96.90
360;DHT22;168;48.872;9.226;2022-11-14T05:50:02;3.80;97.10
360;DHT22;168;48.872;9.226;2022-11-14T05:52:30;3.80;96.60
360;DHT22;168;48.872;9.226;2022-11-14T05:54:58;3.80;96.60
360;DHT22;168;48.872;9.226;2022-11-14T05:57:25;3.90;96.20
360;DHT22;168;48.872;9.226;2022-11-14T05:59:53;3.90;96.20
360;DHT22;168;48.872;9.226;2022-11-14T06:02:21;3.90;96.30
360;DHT22;168;48.872;9.226;2022-11-14T06:04:51;3.90;95.80
360;DHT22;168;48.872;9.226;2022-11-14T06:07:18;3.90;95.90
360;DHT22;168;48.872;9.226;2022-11-14T06:09:46;3.90;95.90
360;DHT22;168;48.872;9.226;2022-11-14T06:12:13;3.90;96.10
360;DHT22;168;48.872;9.226;2022-11-14T06:14:40;3.80;96.30
360;DHT22;168;48.872;9.226;2022-11-14T06:17:08;3.80;96.50
360;DHT22;168;48.872;9.226;2022-11-14T06:19:35;3.80;96.80
360;DHT22;168;48.872;9.226;2022-11-14T06:22:04;3.90;96.90
360;DHT22;168;48.872;9.226;2022-11-14T06:24:32;3.90;97.00
360;DHT22;168;48.872;9.226;2022-11-14T06:26:59;4.00;97.30
360;DHT22;168;48.872;9.226;2022-11-14T06:29:27;4.00;97.10
360;DHT22;168;48.872;9.226;2022-11-14T06:31:56;4.10;97.10
360;DHT22;168;48.872;9.226;2022-11-14T06:34:26;4.10;96.90
360;DHT22;168;48.872;9.226;2022-11-14T06:36:53;4.20;96.80
360;DHT22;168;48.872;9.226;2022-11-14T06:39:22;4.20;96.30
360;DHT22;168;48.872;9.226;2022-11-14T06:41:49;4.20;95.90
360;DHT22;168;48.872;9.226;2022-11-14T06:44:17;4.30;95.40
360;DHT22;168;48.872;9.226;2022-11-14T06:46:44;4.30;95.10
360;DHT22;168;48.872;9.226;2022-11-14T06:49:12;4.50;95.00
360;DHT22;168;48.872;9.226;2022-11-14T06:51:39;4.60;95.10
360;DHT22;168;48.872;9.226;2022-11-14T06:54:09;4.70;95.20
360;DHT22;168;48.872;9.226;2022-11-14T06:56:38;4.80;95.10
360;DHT22;168;48.872;9.226;2022-11-14T06:59:05;4.90;95.20
360;DHT22;168;48.872;9.226;2022-11-14T07:01:33;5.00;95.00
360;DHT22;168;48.872;9.226;2022-11-14T07:04:00;5.10;95.40
360;DHT22;168;48.872;9.226;2022-11-14T07:06:29;5.20;95.70
360;DHT22;168;48.872;9.226;2022-11-14T07:08:57;5.30;96.30
360;DHT22;168;48.872;9.226;2022-11-14T07:11:26;5.40;97.10
360;DHT22;168;48.872;9.226;2022-11-14T07:13:57;5.40;97.70
360;DHT22;168;48.872;9.226;2022-11-14T07:16:26;5.50;97.80
360;DHT22;168;48.872;9.226;2022-11-14T07:18:55;5.50;98.30
360;DHT22;168;48.872;9.226;2022-11-14T07:21:23;5.60;98.50
360;DHT22;168;48.872;9.226;2022-11-14T07:23:50;5.60;98.40
360;DHT22;168;48.872;9.226;2022-11-14T07:26:18;5.60;98.60
360;DHT22;168;48.872;9.226;2022-11-14T07:28:48;5.70;98.80
360;DHT22;168;48.872;9.226;2022-11-14T07:31:18;5.70;99.00
360;DHT22;168;48.872;9.226;2022-11-14T07:33:46;5.80;98.90
360;DHT22;168;48.872;9.226;2022-11-14T07:36:14;5.80;98.50
360;DHT22;168;48.872;9.226;2022-11-14T07:38:42;5.80;98.40
360;DHT22;168;48.872;9.226;2022-11-14T07:41:13;5.80;98.50
360;DHT22;168;48.872;9.226;2022-11-14T07:43:41;5.90;98.60
360;DHT22;168;48.872;9.226;2022-11-14T07:46:11;5.90;98.70
360;DHT22;168;48.872;9.226;2022-11-14T07:48:40;5.90;98.80
360;DHT22;168;48.872;9.226;2022-11-14T07:51:11;6.00;98.90
360;DHT22;168;48.872;9.226;2022-11-14T07:53:40;6.00;99.20
360;DHT22;168;48.872;9.226;2022-11-14T07:56:08;6.00;99.40
360;DHT22;168;48.872;9.226;2022-11-14T07:58:36;6.10;99.70
360;DHT22;168;48.872;9.226;2022-11-14T08:01:12;6.10;99.60
360;DHT22;168;48.872;9.226;2022-11-14T08:03:41;6.00;99.40
360;DHT22;168;48.872;9.226;2022-11-14T08:06:11;6.00;99.40
360;DHT22;168;48.872;9.226;2022-11-14T08:08:39;6.10;99.60
360;DHT22;168;48.872;9.226;2022-11-14T08:11:06;6.10;99.50
360;DHT22;168;48.872;9.226;2022-11-14T08:13:34;6.20;99.60
360;DHT22;168;48.872;9.226;2022-11-14T08:16:06;6.20;99.40
360;DHT22;168;48.872;9.226;2022-11-14T08:18:35;6.20;99.20
360;DHT22;168;48.872;9.226;2022-11-14T08:21:04;6.30;99.20
360;DHT22;168;48.872;9.226;2022-11-14T08:23:32;6.40;99.20
360;DHT22;168;48.872;9.226;2022-11-14T08:25:59;6.50;99.30
360;DHT22;168;48.872;9.226;2022-11-14T08:28:27;6.50;99.30
360;DHT22;168;48.872;9.226;2022-11-14T08:30:58;6.60;99.40
360;DHT22;168;48.872;9.226;2022-11-14T08:33:26;6.70;99.70
360;DHT22;168;48.872;9.226;2022-11-14T08:35:53;6.70;99.70
360;DHT22;168;48.872;9.226;2022-11-14T08:38:22;6.70;99.50
360;DHT22;168;48.872;9.226;2022-11-14T08:40:49;6.70;99.20
360;DHT22;168;48.872;9.226;2022-11-14T08:43:17;6.80;99.20
360;DHT22;168;48.872;9.226;2022-11-14T08:45:44;6.70;98.90
360;DHT22;168;48.872;9.226;2022-11-14T08:48:12;6.80;98.60
360;DHT22;168;48.872;9.226;2022-11-14T08:50:39;6.70;98.10
360;DHT22;168;48.872;9.226;2022-11-14T08:53:07;6.70;98.10
360;DHT22;168;48.872;9.226;2022-11-14T08:55:44;6.80;98.20
360;DHT22;168;48.872;9.226;2022-11-14T08:58:13;6.60;97.10
360;DHT22;168;48.872;9.226;2022-11-14T09:00:41;6.50;95.70
360;DHT22;168;48.872;9.226;2022-11-14T09:03:09;6.40;94.10
360;DHT22;168;48.872;9.226;2022-11-14T09:05:36;6.40;92.80
360;DHT22;168;48.872;9.226;2022-11-14T09:08:04;6.40;91.60
360;DHT22;168;48.872;9.226;2022-11-14T09:10:33;6.50;90.70
360;DHT22;168;48.872;9.226;2022-11-14T09:13:02;6.60;90.10
360;DHT22;168;48.872;9.226;2022-11-14T09:15:30;6.70;90.20
360;DHT22;168;48.872;9.226;2022-11-14T09:17:58;6.90;90.10
360;DHT22;168;48.872;9.226;2022-11-14T09:20:26;7.00;89.20
360;DHT22;168;48.872;9.226;2022-11-14T09:22:57;7.20;88.40
360;DHT22;168;48.872;9.226;2022-11-14T09:25:25;7.40;88.30
360;DHT22;168;48.872;9.226;2022-11-14T09:28:08;7.40;87.80
360;DHT22;168;48.872;9.226;2022-11-14T09:30:36;7.40;86.30
360;DHT22;168;48.872;9.226;2022-11-14T09:33:06;7.40;85.00
360;DHT22;168;48.872;9.226;2022-11-14T09:35:33;7.50;84.10
360;DHT22;168;48.872;9.226;2022-11-14T09:38:05;7.60;84.00
360;DHT22;168;48.872;9.226;2022-11-14T09:40:45;7.70;84.50
360;DHT22;168;48.872;9.226;2022-11-14T09:43:32;7.80;84.70
360;DHT22;168;48.872;9.226;2022-11-14T09:46:15;7.90;85.40
360;DHT22;168;48.872;9.226;2022-11-14T09:48:43;8.00;85.20
360;DHT22;168;48.872;9.226;2022-11-14T09:51:15;8.00;85.00
360;DHT22;168;48.872;9.226;2022-11-14T09:53:49;8.00;84.30
360;DHT22;168;48.872;9.226;2022-11-14T09:56:21;8.10;83.90
360;DHT22;168;48.872;9.226;2022-11-14T09:58:51;8.30;83.30
360;DHT22;168;48.872;9.226;2022-11-14T10:01:31;8.40;83.60
360;DHT22;168;48.872;9.226;2022-11-14T10:04:12;8.50;83.40
360;DHT22;168;48.872;9.226;2022-11-14T10:06:48;8.60;83.20
360;DHT22;168;48.872;9.226;2022-11-14T10:09:33;8.70;83.00
360;DHT22;168;48.872;9.226;2022-11-14T10:12:12;8.90;82.90
360;DHT22;168;48.872;9.226;2022-11-14T10:14:52;9.00;82.50
360;DHT22;168;48.872;9.226;2022-11-14T10:20:22;9.40;81.50
360;DHT22;168;48.872;9.226;2022-11-14T10:23:01;9.60;81.70
360;DHT22;168;48.872;9.226;2022-11-14T10:25:42;9.70;82.60
360;DHT22;168;48.872;9.226;2022-11-14T10:28:24;9.90;82.60
360;DHT22;168;48.872;9.226;2022-11-14T10:31:04;10.10;83.50
360;DHT22;168;48.872;9.226;2022-11-14T10:33:41;10.30;84.20
360;DHT22;168;48.872;9.226;2022-11-14T10:36:20;10.50;86.10
360;DHT22;168;48.872;9.226;2022-11-14T10:38:55;10.70;88.30
360;DHT22;168;48.872;9.226;2022-11-14T10:41:28;10.90;90.00
360;DHT22;168;48.872;9.226;2022-11-14T10:43:56;11.00;90.60
360;DHT22;168;48.872;9.226;2022-11-14T10:46:31;11.20;90.80
360;DHT22;168;48.872;9.226;2022-11-14T10:49:01;11.30;92.50
360;DHT22;168;48.872;9.226;2022-11-14T10:51:42;11.50;93.80
360;DHT22;168;48.872;9.226;2022-11-14T10:54:16;11.60;96.00
360;DHT22;168;48.872;9.226;2022-11-14T10:56:47;11.70;97.00
360;DHT22;168;48.872;9.226;2022-11-14T10:59:15;11.70;96.80
360;DHT22;168;48.872;9.226;2022-11-14T11:01:46;11.70;97.30
360;DHT22;168;48.872;9.226;2022-11-14T11:04:22;11.70;97.70
360;DHT22;168;48.872;9.226;2022-11-14T11:06:52;11.80;98.30
360;DHT22;168;48.872;9.226;2022-11-14T11:09:21;11.80;98.30
360;DHT22;168;48.872;9.226;2022-11-14T11:12:08;11.80;98.40
360;DHT22;168;48.872;9.226;2022-11-14T11:14:36;11.90;98.80
360;DHT22;168;48.872;9.226;2022-11-14T11:17:21;12.00;98.90
360;DHT22;168;48.872;9.226;2022-11-14T11:19:49;11.90;98.70
360;DHT22;168;48.872;9.226;2022-11-14T11:22:29;12.00;98.60
360;DHT22;168;48.872;9.226;2022-11-14T11:24:56;12.10;98.30
360;DHT22;168;48.872;9.226;2022-11-14T11:27:26;12.20;98.50
360;DHT22;168;48.872;9.226;2022-11-14T11:30:06;12.30;98.50
360;DHT22;168;48.872;9.226;2022-11-14T11:32:35;12.50;98.80
360;DHT22;168;48.872;9.226;2022-11-14T11:35:10;12.60;98.90
360;DHT22;168;48.872;9.226;2022-11-14T11:37:43;12.60;98.80
360;DHT22;168;48.872;9.226;2022-11-14T11:40:16;12.60;98.70
360;DHT22;168;48.872;9.226;2022-11-14T11:42:50;12.70;98.80
360;DHT22;168;48.872;9.226;2022-11-14T11:45:20;12.70;98.80
360;DHT22;168;48.872;9.226;2022-11-14T11:47:54;12.80;98.80
360;DHT22;168;48.872;9.226;2022-11-14T11:50:23;12.80;98.70
360;DHT22;168;48.872;9.226;2022-11-14T11:52:59;12.90;98.70
360;DHT22;168;48.872;9.226;2022-11-14T11:55:31;13.00;98.70
360;DHT22;168;48.872;9.226;2022-11-14T11:58:03;13.20;98.50
360;DHT22;168;48.872;9.226;2022-11-14T12:00:32;13.30;98.30
360;DHT22;168;48.872;9.226;2022-11-14T12:03:01;13.20;98.20
360;DHT22;168;48.872;9.226;2022-11-14T12:05:36;13.20;98.30
360;DHT22;168;48.872;9.226;2022-11-14T12:08:11;13.10;98.40
360;DHT22;168;48.872;9.226;2022-11-14T12:10:41;13.10;98.40
360;DHT22;168;48.872;9.226;2022-11-14T12:13:56;13.20;98.60
360;DHT22;168;48.872;9.226;2022-11-14T12:16:40;13.20;98.40
360;DHT22;168;48.872;9.226;2022-11-14T12:22:25;13.10;98.50
360;DHT22;168;48.872;9.226;2022-11-14T12:25:25;13.00;98.40
360;DHT22;168;48.872;9.226;2022-11-14T12:28:16;13.10;98.60
360;DHT22;168;48.872;9.226;2022-11-14T12:30:49;13.10;98.50
360;DHT22;168;48.872;9.226;2022-11-14T12:33:20;13.10;98.50
360;DHT22;168;48.872;9.226;2022-11-14T12:35:52;13.20;98.50
360;DHT22;168;48.872;9.226;2022-11-14T12:38:23;13.20;98.50
360;DHT22;168;48.872;9.226;2022-11-14T12:40:52;13.30;98.30
360;DHT22;168;48.872;9.226;2022-11-14T12:43:31;13.30;98.30
360;DHT22;168;48.872;9.226;2022-11-14T12:46:01;13.40;98.20
360;DHT22;168;48.872;9.226;2022-11-14T12:48:33;13.40;98.00
360;DHT22;168;48.872;9.226;2022-11-14T12:51:02;13.50;98.10
360;DHT22;168;48.872;9.226;2022-11-14T12:53:39;13.70;98.30
360;DHT22;168;48.872;9.226;2022-11-14T12:59:25;13.90;97.20
360;DHT22;168;48.872;9.226;2022-11-14T13:02:17;14.00;97.00
360;DHT22;168;48.872;9.226;2022-11-14T13:04:58;14.00;96.80
360;DHT22;168;48.872;9.226;2022-11-14T13:07:38;14.00;96.70
360;DHT22;168;48.872;9.226;2022-11-14T13:10:14;14.10;96.20
360;DHT22;168;48.872;9.226;2022-11-14T13:12:41;14.00;96.10
360;DHT22;168;48.872;9.226;2022-11-14T13:15:49;14.00;96.30
360;DHT22;168;48.872;9.226;2022-11-14T13:18:34;13.90;96.30
360;DHT22;168;48.872;9.226;2022-11-14T13:21:22;14.00;96.30
360;DHT22;168;48.872;9.226;2022-11-14T13:24:09;14.00;96.60
360;DHT22;168;48.872;9.226;2022-11-14T13:26:46;14.00;96.60
360;DHT22;168;48.872;9.226;2022-11-14T13:35:49;14.00;96.20
360;DHT22;168;48.872;9.226;2022-11-14T13:39:01;13.90;96.30
360;DHT22;168;48.872;9.226;2022-11-14T13:45:06;13.80;96.50
360;DHT22;168;48.872;9.226;2022-11-14T13:48:19;13.80;96.10
360;DHT22;168;48.872;9.226;2022-11-14T13:50:51;13.70;96.50
360;DHT22;168;48.872;9.226;2022-11-14T13:53:25;13.80;96.30
360;DHT22;168;48.872;9.226;2022-11-14T13:56:04;13.90;95.90
360;DHT22;168;48.872;9.226;2022-11-14T14:01:37;13.90;96.10
360;DHT22;168;48.872;9.226;2022-11-14T14:04:28;14.00;96.00
360;DHT22;168;48.872;9.226;2022-11-14T14:07:06;14.00;96.00
360;DHT22;168;48.872;9.226;2022-11-14T14:09:43;14.00;96.00
360;DHT22;168;48.872;9.226;2022-11-14T14:15:20;14.20;95.80
360;DHT22;168;48.872;9.226;2022-11-14T14:18:06;14.20;95.80
360;DHT22;168;48.872;9.226;2022-11-14T14:20:42;14.30;95.10
360;DHT22;168;48.872;9.226;2022-11-14T14:23:19;14.40;94.80
360;DHT22;168;48.872;9.226;2022-11-14T14:25:57;14.40;95.00
360;DHT22;168;48.872;9.226;2022-11-14T14:28:36;14.40;94.60
360;DHT22;168;48.872;9.226;2022-11-14T14:31:10;14.40;94.80
360;DHT22;168;48.872;9.226;2022-11-14T14:33:42;14.40;94.80
360;DHT22;168;48.872;9.226;2022-11-14T14:36:18;14.50;94.10
360;DHT22;168;48.872;9.226;2022-11-14T14:38:46;14.50;93.80
360;DHT22;168;48.872;9.226;2022-11-14T14:41:16;14.40;94.00
360;DHT22;168;48.872;9.226;2022-11-14T14:43:50;14.40;94.40
360;DHT22;168;48.872;9.226;2022-11-14T14:46:28;14.50;94.10
360;DHT22;168;48.872;9.226;2022-11-14T14:48:59;14.50;94.00
360;DHT22;168;48.872;9.226;2022-11-14T14:51:30;14.40;94.20
360;DHT22;168;48.872;9.226;2022-11-14T14:53:58;14.50;94.00
360;DHT22;168;48.872;9.226;2022-11-14T14:56:26;14.40;94.00
360;DHT22;168;48.872;9.226;2022-11-14T14:58:54;14.40;93.80
360;DHT22;168;48.872;9.226;2022-11-14T15:01:24;14.30;94.60
360;DHT22;168;48.872;9.226;2022-11-14T15:04:00;14.30;94.70
360;DHT22;168;48.872;9.226;2022-11-14T15:06:34;14.30;94.30
360;DHT22;168;48.872;9.226;2022-11-14T15:09:08;14.30;94.50
360;DHT22;168;48.872;9.226;2022-11-14T15:11:41;14.20;94.60
360;DHT22;168;48.872;9.226;2022-11-14T15:14:12;14.10;95.00
360;DHT22;168;48.872;9.226;2022-11-14T15:16:42;14.20;94.80
360;DHT22;168;48.872;9.226;2022-11-14T15:19:14;14.20;94.50
360;DHT22;168;48.872;9.226;2022-11-14T15:21:43;14.10;94.70
360;DHT22;168;48.872;9.226;2022-11-14T15:24:17;14.10;94.50
360;DHT22;168;48.872;9.226;2022-11-14T15:26:46;14.00;94.90
360;DHT22;168;48.872;9.226;2022-11-14T15:29:17;14.00;94.90
360;DHT22;168;48.872;9.226;2022-11-14T15:31:46;14.00;95.10
360;DHT22;168;48.872;9.226;2022-11-14T15:34:27;14.00;95.30
360;DHT22;168;48.872;9.226;2022-11-14T15:37:18;14.10;94.40
360;DHT22;168;48.872;9.226;2022-11-14T15:39:46;14.10;94.40
360;DHT22;168;48.872;9.226;2022-11-14T15:42:15;14.10;93.80
360;DHT22;168;48.872;9.226;2022-11-14T15:44:43;14.10;94.00
360;DHT22;168;48.872;9.226;2022-11-14T15:47:16;14.10;94.00
360;DHT22;168;48.872;9.226;2022-11-14T15:49:58;14.10;94.20
360;DHT22;168;48.872;9.226;2022-11-14T15:52:32;14.10;93.30
360;DHT22;168;48.872;9.226;2022-11-14T15:55:00;14.10;93.30
360;DHT22;168;48.872;9.226;2022-11-14T15:57:30;14.00;93.50
360;DHT22;168;48.872;9.226;2022-11-14T15:59:58;14.00;94.00
360;DHT22;168;48.872;9.226;2022-11-14T16:02:28;14.00;94.00
360;DHT22;168;48.872;9.226;2022-11-14T16:04:57;14.00;94.10
360;DHT22;168;48.872;9.226;2022-11-14T16:07:26;14.00;93.90
360;DHT22;168;48.872;9.226;2022-11-14T16:09:54;13.80;94.20
360;DHT22;168;48.872;9.226;2022-11-14T16:12:21;13.80;94.20
360;DHT22;168;48.872;9.226;2022-11-14T16:14:49;13.70;94.40
360;DHT22;168;48.872;9.226;2022-11-14T16:17:17;13.60;94.60
360;DHT22;168;48.872;9.226;2022-11-14T16:19:44;13.60;94.80
360;DHT22;168;48.872;9.226;2022-11-14T16:22:16;13.50;94.80
360;DHT22;168;48.872;9.226;2022-11-14T16:24:44;13.40;95.10
360;DHT22;168;48.872;9.226;2022-11-14T16:27:11;13.30;95.20
360;DHT22;168;48.872;9.226;2022-11-14T16:29:40;13.30;95.10
360;DHT22;168;48.872;9.226;2022-11-14T16:32:09;13.20;95.10
360;DHT22;168;48.872;9.226;2022-11-14T16:34:37;13.20;95.10
360;DHT22;168;48.872;9.226;2022-11-14T16:37:04;13.10;95.30
360;DHT22;168;48.872;9.226;2022-11-14T16:39:33;13.10;95.40
360;DHT22;168;48.872;9.226;2022-11-14T16:42:01;13.10;95.40
360;DHT22;168;48.872;9.226;2022-11-14T16:44:29;13.00;95.60
360;DHT22;168;48.872;9.226;2022-11-14T16:46:57;13.00;95.60
360;DHT22;168;48.872;9.226;2022-11-14T16:49:24;12.90;95.60
360;DHT22;168;48.872;9.226;2022-11-14T16:51:52;12.80;95.80
360;DHT22;168;48.872;9.226;2022-11-14T16:54:21;12.80;95.70
360;DHT22;168;48.872;9.226;2022-11-14T16:56:54;12.70;96.10
360;DHT22;168;48.872;9.226;2022-11-14T16:59:22;12.70;96.20
360;DHT22;168;48.872;9.226;2022-11-14T17:01:49;12.70;96.20
360;DHT22;168;48.872;9.226;2022-11-14T17:04:17;12.60;96.60
360;DHT22;168;48.872;9.226;2022-11-14T17:06:44;12.50;96.90
360;DHT22;168;48.872;9.226;2022-11-14T17:09:12;12.50;97.00
360;DHT22;168;48.872;9.226;2022-11-14T17:11:40;12.40;97.20
360;DHT22;168;48.872;9.226;2022-11-14T17:14:11;12.40;97.40
360;DHT22;168;48.872;9.226;2022-11-14T17:16:38;12.40;97.00
360;DHT22;168;48.872;9.226;2022-11-14T17:19:06;12.40;96.80
360;DHT22;168;48.872;9.226;2022-11-14T17:21:34;12.40;97.00
360;DHT22;168;48.872;9.226;2022-11-14T17:24:01;12.30;97.10
360;DHT22;168;48.872;9.226;2022-11-14T17:26:28;12.30;97.10
360;DHT22;168;48.872;9.226;2022-11-14T17:28:56;12.30;97.20
360;DHT22;168;48.872;9.226;2022-11-14T17:31:25;12.20;97.30
360;DHT22;168;48.872;9.226;2022-11-14T17:33:53;12.10;97.40